Hartford, Connecticut
Traffic Map
Current Weather Conditions
Hartford, Connecticut
Overcast
Overcast
41°
Feels Like: 36°
Wind Chill: 36° Ceiling: 1700
Heat Index: 41° Visibility: 10mi
Dew Point: 35° Wind: 7mph
Humidity: 79% Direction: 120° (ESE)
Pressure: 30.29in Gusts: 0mph
Raw Report DataKHFD 230004Z 12006KT 10SM BKN017 OVC050 05/02 A3029 RMK AO2 T00500017
Traffic Incident Summary
Active as of:
Severity:
Category:
InformationThere was an issue retrieving the traffic information for this location. Please try a different location or try again shortly.
Advertisements
Track Severe Weather on mobile